Airfield :
LOGIN :

Register | Disclaimer

   EN    FR    IT 

 










Legend :    VFR   Marginal VFR   IFR   Intensive IFR   Very Intensive IFR
Visi :
Ceiling :
>= 8 km
>= 3000ft
5 to 8 km
1000 to 3000 ft
1500m to 5 km
500 to 1000 ft
800 to 1500m
200 to 500 ft
< 800m
< 200 ft
Symbols :   Thunderstorms  Fog  Heavy snow  Heavy precipitations  Wind > 20 kt
SIGMETs :     Misc.  Thunderstorms  Icing  Turbulence  Mountain Waves  Volcanic Ashes






- Airport Elevation : 13 ft
- IATA code : OST


EBOS - Oostend bruges Int.

CURRENT METAR :
  • 191720Z 21010KT 9999 -RA FEW015 BKN032 06/04 Q1021 TEMPO 4000 -RADZ BKN012

EXPIRED METARs :
  • 191650Z 22009KT 9999 -RA FEW015 BKN030 06/04 Q1021 TEMPO 4000 -RADZ
  • 191620Z 25012KT 9999 -RA FEW018 BKN028 07/04 Q1021 TEMPO 4000 -RADZ
  • 191550Z 25014KT 9999 -RA FEW018 BKN045 07/03 Q1021 TEMPO 4000 -RADZ
  • 191520Z 25014KT 9999 FEW022 08/03 Q1021 NOSIG
  • 191450Z 25015KT 9999 FEW025 07/02 Q1022 NOSIG

TAF TAF EBOS
Valid from the 19 at 18:00 until the 21 at 00:00 UTC


191709Z 1918/2024 21015G25KT 9999 SCT025
TEMPO 1918/1923 19013KT 4000 RA BKN012
PROB40
TEMPO 1923/2007 4000 -DZ SCT008 BKN012
TEMPO 2013/2017 23025G40KT 4000 RA SHRA
BECMG 2016/2018 29020G30KT



MET'MAP, your aeronautical weather chart ! - Copyright ORBIFLY December 2007 - Disclaimer

ORBIFLY MET'MAP TEAM :

Programming & Development : Alexandra Zaïnal
Concept & original design : Baudouin d'Aumeries
Assistance for programming : Marc-Olivier Méhu
Technical & hardware support : Manuel Goepfert

Contact : metmap@orbifly.com




SOURCES & CREDITS :

   NOAA